Airfield :
LOGIN :

Register | Disclaimer

   EN    FR    IT 

 










Legend :    VFR   Marginal VFR   IFR   Intensive IFR   Very Intensive IFR
Visi :
Ceiling :
>= 8 km
>= 3000ft
5 to 8 km
1000 to 3000 ft
1500m to 5 km
500 to 1000 ft
800 to 1500m
200 to 500 ft
< 800m
< 200 ft
Symbols :   Thunderstorms  Fog  Heavy snow  Heavy precipitations  Wind > 20 kt
SIGMETs :     Misc.  Thunderstorms  Icing  Turbulence  Mountain Waves  Volcanic Ashes







- Airport Elevation : 1363 ft


ETIC - Grafenwohr Army Air Field

CURRENT METAR :
  • 220256Z AUTO 00000KT 9999 CLR 07/04 A3015 RMK AO2 SLP207 T00660036 52006 $

EXPIRED METARs :
  • 220156Z AUTO 00000KT 9999 CLR 08/04 A3014 RMK AO2 SLP200 T00760035 $
  • 220056Z AUTO 00000KT 9999 CLR 08/03 A3014 RMK AO2 SLP200 T00790026 $
  • 212356Z AUTO 00000KT 9999 CLR 09/03 A3013 RMK AO2 SLP195 T00940029 10205 20094 52014 $

TAF AMD TAF ETIC
Valid from the 21 at 22:00 until the 23 at 04:00 UTC


212244Z 2122/2304 33009KT 9999 FEW030 BKN140 QNH3000INS
BECMG 2206/2207 28012G18KT 9999 BKN030 QNH3015INS
BECMG 2210/2211 28012G20KT 8000 -SHRA BKN020 QNH3017INS
BECMG 2215/2216 30012KT 9999 NSW SCT030 BKN040 QNH3018INS TX15/2214Z TN07/2204Z LAST NO AMDS AFT 2122 NEXT 2520
No reported NOTAMs for that airfield.



MET'MAP, your aeronautical weather chart ! - Copyright ORBIFLY December 2007 - Disclaimer

ORBIFLY MET'MAP TEAM :

Programming & Development : Alexandra Zaïnal
Concept & Development : Baudouin d'Aumeries
Co-Development & Prog : Marc-Olivier Méhu
Technical & hardware support : Manuel Goepfert

Contact : metmap@orbifly.com




SOURCES & CREDITS :

   NOAA